createdAt,value
2023-01-27T00:01:15.657Z,8.93
2023-01-27T00:06:17.061Z,10.75
2023-01-27T00:11:37.310Z,10.60
2023-01-27T00:16:38.703Z,8.98
2023-01-27T00:21:58.890Z,10.15
2023-01-27T00:27:00.330Z,9.60
2023-01-27T00:32:20.682Z,9.85
2023-01-27T00:42:23.510Z,10.13
2023-01-27T00:47:24.916Z,10.45
2023-01-27T00:52:26.482Z,11.35
2023-01-27T00:57:27.952Z,11.80
2023-01-27T01:02:29.415Z,10.55
2023-01-27T01:07:30.870Z,10.43
2023-01-27T01:12:32.317Z,11.48
2023-01-27T01:17:33.745Z,12.48
2023-01-27T01:22:35.165Z,10.45
2023-01-27T01:27:36.608Z,10.15
2023-01-27T01:32:38.033Z,11.88
2023-01-27T01:37:39.470Z,12.73
2023-01-27T01:42:52.520Z,11.40
2023-01-27T01:47:53.924Z,11.25
2023-01-27T01:52:56.001Z,14.35
2023-01-27T01:57:57.490Z,13.00
2023-01-27T02:02:59.022Z,12.98
2023-01-27T02:08:16.612Z,12.57
2023-01-27T02:13:18.005Z,12.50
2023-01-27T02:18:19.882Z,12.80
2023-01-27T02:23:52.243Z,12.18
2023-01-27T02:29:06.648Z,13.00
2023-01-27T02:34:12.371Z,13.63
2023-01-27T02:39:16.770Z,13.50
2023-01-27T02:44:18.304Z,13.07
2023-01-27T02:49:19.723Z,14.25
2023-01-27T02:54:21.114Z,13.23
2023-01-27T02:59:22.558Z,14.27
2023-01-27T03:04:24.113Z,14.35
2023-01-27T03:09:25.617Z,13.25
2023-01-27T03:14:45.809Z,13.98
2023-01-27T03:19:53.269Z,14.00
2023-01-27T03:24:54.705Z,13.35
2023-01-27T03:29:56.203Z,13.90
2023-01-27T03:34:57.846Z,13.65
2023-01-27T03:40:18.106Z,13.55
2023-01-27T03:50:43.100Z,13.00
2023-01-27T03:55:44.546Z,13.55
2023-01-27T04:00:47.867Z,14.85
2023-01-27T04:06:07.894Z,12.95
2023-01-27T04:11:28.634Z,14.55
2023-01-27T04:16:31.700Z,16.67
2023-01-27T04:21:33.922Z,15.45
2023-01-27T04:26:35.539Z,16.15
2023-01-27T04:31:36.980Z,15.75
2023-01-27T04:36:40.119Z,17.20
2023-01-27T04:41:41.619Z,13.98
2023-01-27T04:46:43.061Z,14.80
2023-01-27T04:51:46.233Z,14.43
2023-01-27T04:57:01.159Z,12.98
2023-01-27T05:02:04.676Z,14.50
2023-01-27T05:07:06.284Z,15.18
2023-01-27T05:12:08.014Z,14.48
2023-01-27T05:17:09.474Z,15.88
2023-01-27T05:22:11.408Z,14.45
2023-01-27T05:27:12.836Z,15.43
2023-01-27T05:32:14.249Z,14.82
2023-01-27T05:37:15.980Z,15.20
2023-01-27T05:42:18.527Z,15.68
2023-01-27T05:47:19.964Z,15.60
2023-01-27T05:52:21.414Z,16.80
2023-01-27T05:57:22.887Z,16.63
2023-01-27T06:02:24.545Z,15.45
2023-01-27T06:07:25.983Z,15.55
2023-01-27T06:12:27.460Z,13.10
2023-01-27T06:17:30.336Z,16.40
2023-01-27T06:22:31.805Z,16.55
2023-01-27T06:27:33.271Z,16.92
2023-01-27T06:32:37.888Z,17.35
2023-01-27T06:37:39.492Z,18.67
2023-01-27T06:42:43.490Z,18.95
2023-01-27T06:47:45.017Z,18.83
2023-01-27T06:52:46.574Z,17.20
2023-01-27T06:57:48.434Z,18.48
2023-01-27T07:02:50.726Z,18.38
2023-01-27T07:07:52.326Z,18.27
2023-01-27T07:12:53.805Z,18.38
2023-01-27T07:17:58.701Z,16.48
2023-01-27T07:23:02.152Z,17.40
2023-01-27T07:28:03.866Z,15.27
2023-01-27T07:33:06.298Z,15.80
2023-01-27T07:38:08.049Z,14.40
2023-01-27T07:43:10.382Z,17.08
2023-01-27T07:48:12.884Z,16.65
2023-01-27T07:53:14.787Z,16.05
2023-01-27T07:58:16.734Z,14.82
2023-01-27T08:03:23.988Z,14.68
2023-01-27T08:08:25.492Z,14.95
2023-01-27T08:13:27.180Z,14.23
2023-01-27T08:18:29.773Z,13.48
2023-01-27T08:23:32.649Z,13.20
2023-01-27T08:28:36.860Z,11.50
2023-01-27T08:33:38.865Z,11.50
2023-01-27T08:38:41.460Z,11.05
2023-01-27T08:43:43.401Z,9.45
2023-01-27T08:48:44.968Z,10.63
2023-01-27T08:53:46.411Z,8.77
2023-01-27T08:58:48.552Z,8.77
2023-01-27T09:03:50.126Z,7.85
2023-01-27T09:09:11.754Z,8.10
2023-01-27T09:14:13.933Z,6.93
2023-01-27T09:19:15.890Z,7.60
2023-01-27T09:24:18.121Z,6.55
2023-01-27T09:29:19.767Z,6.65
2023-01-27T09:34:21.310Z,6.38
2023-01-27T09:39:23.600Z,5.82
2023-01-27T09:44:45.963Z,6.22
2023-01-27T09:49:50.358Z,5.40
2023-01-27T09:55:12.295Z,5.50
2023-01-27T10:00:33.282Z,6.43
2023-01-27T10:05:37.928Z,5.55
2023-01-27T10:10:56.135Z,5.68
2023-01-27T10:16:13.640Z,4.75
2023-01-27T10:21:33.888Z,4.97
2023-01-27T10:26:42.687Z,4.90
2023-01-27T10:31:54.384Z,4.90
2023-01-27T10:37:12.913Z,5.28
2023-01-27T10:42:31.378Z,5.32
2023-01-27T10:47:42.889Z,5.32
2023-01-27T10:52:52.684Z,5.07
2023-01-27T10:58:02.156Z,4.05
2023-01-27T11:03:21.562Z,4.53
2023-01-27T11:08:27.365Z,4.20
2023-01-27T11:13:31.107Z,4.70
2023-01-27T11:18:36.190Z,4.50
2023-01-27T11:23:43.379Z,4.25
2023-01-27T11:29:00.188Z,4.65
2023-01-27T11:34:19.219Z,3.70
2023-01-27T11:39:20.845Z,4.20
2023-01-27T11:44:29.571Z,5.15
2023-01-27T11:49:35.566Z,5.00
2023-01-27T11:54:43.031Z,4.85
2023-01-27T11:59:45.693Z,4.68
2023-01-27T12:05:00.120Z,4.65
2023-01-27T12:10:01.867Z,6.38
2023-01-27T12:15:05.122Z,4.78
2023-01-27T12:20:15.138Z,4.22
2023-01-27T12:25:28.057Z,4.40
2023-01-27T12:30:34.844Z,7.22
2023-01-27T12:35:37.339Z,6.43
2023-01-27T12:40:43.083Z,4.30
2023-01-27T12:45:44.888Z,4.05
2023-01-27T12:50:52.648Z,4.43
2023-01-27T12:56:13.804Z,4.10
2023-01-27T13:01:23.729Z,4.03
2023-01-27T13:06:59.338Z,4.43
2023-01-27T13:12:04.801Z,4.50
2023-01-27T13:17:27.913Z,4.45
2023-01-27T13:22:37.823Z,3.72
2023-01-27T13:27:40.825Z,3.53
2023-01-27T13:32:47.568Z,3.72
2023-01-27T13:37:57.298Z,4.47
2023-01-27T13:43:34.302Z,3.93
2023-01-27T13:48:43.210Z,3.60
2023-01-27T13:53:47.576Z,3.40
2023-01-27T13:59:17.240Z,3.72
2023-01-27T14:04:21.978Z,5.43
2023-01-27T14:09:49.613Z,3.50
2023-01-27T14:15:03.918Z,3.55
2023-01-27T14:20:17.995Z,4.03
2023-01-27T14:25:31.075Z,4.28
2023-01-27T14:30:41.426Z,4.63
2023-01-27T14:41:05.227Z,3.55
2023-01-27T14:46:41.333Z,4.43
2023-01-27T14:51:49.731Z,3.97
2023-01-27T14:57:08.250Z,3.40
2023-01-27T15:02:15.963Z,3.33
2023-01-27T15:07:34.113Z,3.13
2023-01-27T15:12:48.340Z,3.67
2023-01-27T15:18:01.888Z,3.92
2023-01-27T15:23:06.929Z,3.58
2023-01-27T15:28:17.774Z,3.72
2023-01-27T15:33:52.037Z,3.83
2023-01-27T15:39:09.244Z,4.45
2023-01-27T15:44:18.221Z,3.80
2023-01-27T15:49:27.181Z,4.30
2023-01-27T15:54:33.529Z,4.32
2023-01-27T15:59:59.515Z,4.55
2023-01-27T16:05:26.222Z,3.97
2023-01-27T16:10:33.579Z,5.90
2023-01-27T16:15:35.701Z,4.50
2023-01-27T16:20:44.063Z,5.53
2023-01-27T16:25:50.763Z,4.97
2023-01-27T16:31:05.754Z,4.60
2023-01-27T16:36:29.166Z,4.72
2023-01-27T16:41:39.063Z,30.83
2023-01-27T16:46:45.496Z,5.57
2023-01-27T16:51:58.155Z,8.23
2023-01-27T16:57:01.706Z,5.75
2023-01-27T17:02:16.062Z,5.38
2023-01-27T17:07:17.703Z,5.03
2023-01-27T17:12:50.351Z,4.90
2023-01-27T17:17:52.212Z,4.35
2023-01-27T17:22:55.383Z,5.30
2023-01-27T17:28:00.269Z,6.10
2023-01-27T17:33:04.847Z,11.82
2023-01-27T17:38:16.460Z,7.00
2023-01-27T17:43:37.665Z,10.07
2023-01-27T17:48:51.414Z,9.50
2023-01-27T17:53:54.226Z,10.10
2023-01-27T17:59:07.079Z,5.45
2023-01-27T18:04:11.850Z,5.07
2023-01-27T18:09:18.243Z,5.50
2023-01-27T18:14:20.887Z,5.57
2023-01-27T18:19:24.891Z,4.90
2023-01-27T18:24:28.271Z,5.03
2023-01-27T18:29:36.284Z,5.78
2023-01-27T18:34:51.600Z,4.97
2023-01-27T18:39:53.760Z,5.65
2023-01-27T18:44:56.080Z,5.32
2023-01-27T18:50:00.620Z,5.25
2023-01-27T18:55:13.517Z,5.03
2023-01-27T19:00:18.021Z,6.00
2023-01-27T19:05:25.667Z,7.07
2023-01-27T19:10:30.637Z,9.25
2023-01-27T19:15:44.266Z,8.43
2023-01-27T19:20:46.081Z,13.07
2023-01-27T19:25:50.971Z,5.50
2023-01-27T19:30:52.517Z,6.85
2023-01-27T19:36:00.650Z,6.32
2023-01-27T19:41:03.243Z,6.90
2023-01-27T19:46:14.734Z,6.50
2023-01-27T19:51:17.456Z,5.97
2023-01-27T19:56:21.484Z,6.60
2023-01-27T20:01:24.951Z,5.45
2023-01-27T20:06:28.570Z,5.45
2023-01-27T20:11:31.992Z,5.00
2023-01-27T20:16:34.031Z,4.65
2023-01-27T20:21:35.587Z,4.32
2023-01-27T20:26:37.510Z,5.90
2023-01-27T20:31:39.598Z,5.50
2023-01-27T20:36:41.326Z,5.82
2023-01-27T20:41:42.813Z,5.50
2023-01-27T20:46:44.275Z,5.85
2023-01-27T20:51:45.745Z,5.82
2023-01-27T20:56:47.226Z,5.90
2023-01-27T21:01:48.756Z,6.25
2023-01-27T21:06:50.204Z,6.03
2023-01-27T21:11:51.719Z,5.78
2023-01-27T21:16:53.262Z,6.90
2023-01-27T21:21:54.905Z,7.70
2023-01-27T21:26:57.197Z,7.75
2023-01-27T21:31:58.921Z,8.20
2023-01-27T21:37:00.436Z,7.03
2023-01-27T21:42:01.842Z,5.43
2023-01-27T21:47:04.708Z,3.97
2023-01-27T21:52:06.138Z,6.97
2023-01-27T21:57:07.595Z,3.95
2023-01-27T22:02:13.616Z,3.80
2023-01-27T22:07:16.900Z,3.45
2023-01-27T22:12:18.515Z,3.65
2023-01-27T22:17:20.197Z,2.80
2023-01-27T22:22:21.652Z,3.10
2023-01-27T22:27:24.139Z,3.03
2023-01-27T22:32:25.591Z,2.42
2023-01-27T22:37:27.040Z,2.83
2023-01-27T22:42:28.491Z,2.92
2023-01-27T22:47:29.944Z,2.40
2023-01-27T22:52:31.417Z,2.97
2023-01-27T22:57:33.417Z,3.42
2023-01-27T23:02:36.962Z,3.60
2023-01-27T23:07:38.462Z,3.15
2023-01-27T23:12:40.073Z,3.00
2023-01-27T23:17:41.529Z,3.25
2023-01-27T23:22:43.009Z,3.55
2023-01-27T23:27:44.483Z,3.10
2023-01-27T23:32:45.967Z,2.67
2023-01-27T23:37:47.365Z,2.80
2023-01-27T23:42:48.797Z,2.33
2023-01-27T23:47:50.250Z,2.35
2023-01-27T23:52:51.745Z,2.30
2023-01-27T23:57:53.158Z,2.53
